createdAt,value
2018-06-15T00:00:48.692Z,5.27
2018-06-15T00:03:17.008Z,5.27
2018-06-15T00:05:45.146Z,5.03
2018-06-15T00:08:13.422Z,5.10
2018-06-15T00:10:41.617Z,4.60
2018-06-15T00:13:09.902Z,4.70
2018-06-15T00:15:38.108Z,7.07
2018-06-15T00:18:06.194Z,6.20
2018-06-15T00:20:34.574Z,4.73
2018-06-15T00:23:02.700Z,4.23
2018-06-15T00:25:31.387Z,4.40
2018-06-15T00:27:59.505Z,3.93
2018-06-15T00:30:27.662Z,4.17
2018-06-15T00:32:55.925Z,3.80
2018-06-15T00:35:24.156Z,4.60
2018-06-15T00:37:52.428Z,3.97
2018-06-15T00:40:20.728Z,3.70
2018-06-15T00:42:49.773Z,3.90
2018-06-15T00:45:18.100Z,3.97
2018-06-15T00:47:46.275Z,4.23
2018-06-15T00:50:16.008Z,4.40
2018-06-15T00:52:44.191Z,4.40
2018-06-15T00:55:12.738Z,5.00
2018-06-15T00:57:45.836Z,5.73
2018-06-15T01:00:15.203Z,6.57
2018-06-15T01:02:44.788Z,7.10
2018-06-15T01:05:12.925Z,7.20
2018-06-15T01:07:41.136Z,7.70
2018-06-15T01:10:09.064Z,7.53
2018-06-15T01:12:37.237Z,7.43
2018-06-15T01:15:05.559Z,7.97
2018-06-15T01:17:33.727Z,8.70
2018-06-15T01:20:01.947Z,8.90
2018-06-15T01:22:30.131Z,8.20
2018-06-15T01:24:58.230Z,9.03
2018-06-15T01:27:26.554Z,7.97
2018-06-15T01:29:54.656Z,8.60
2018-06-15T01:32:22.855Z,8.47
2018-06-15T01:34:51.211Z,8.90
2018-06-15T01:37:19.405Z,9.47
2018-06-15T01:39:47.672Z,9.17
2018-06-15T01:42:16.567Z,8.80
2018-06-15T01:44:44.693Z,8.67
2018-06-15T01:47:12.945Z,9.20
2018-06-15T01:49:41.072Z,9.07
2018-06-15T01:52:09.334Z,8.27
2018-06-15T01:54:37.889Z,9.13
2018-06-15T01:57:09.051Z,8.77
2018-06-15T01:59:38.016Z,8.80
2018-06-15T02:02:06.536Z,8.60
2018-06-15T02:04:35.303Z,8.17
2018-06-15T02:07:04.083Z,9.60
2018-06-15T02:09:34.303Z,9.33
2018-06-15T02:12:03.882Z,8.90
2018-06-15T02:14:32.211Z,10.27
2018-06-15T02:17:01.757Z,8.23
2018-06-15T02:19:30.188Z,9.17
2018-06-15T02:21:58.333Z,8.10
2018-06-15T02:24:26.777Z,8.70
2018-06-15T02:26:54.878Z,8.27
2018-06-15T02:29:23.034Z,8.27
2018-06-15T02:31:51.174Z,9.00
2018-06-15T02:34:19.439Z,8.67
2018-06-15T02:36:47.700Z,9.03
2018-06-15T02:39:17.446Z,8.70
2018-06-15T02:41:46.168Z,10.27
2018-06-15T02:44:15.769Z,9.57
2018-06-15T02:46:43.949Z,9.47
2018-06-15T02:49:12.233Z,9.27
2018-06-15T02:51:40.424Z,10.27
2018-06-15T02:54:08.586Z,9.30
2018-06-15T02:56:36.780Z,10.33
2018-06-15T02:59:04.981Z,9.67
2018-06-15T03:01:33.550Z,9.47
2018-06-15T03:04:03.234Z,10.07
2018-06-15T03:06:31.408Z,9.97
2018-06-15T03:08:59.803Z,9.93
2018-06-15T03:11:28.269Z,12.70
2018-06-15T03:13:56.402Z,10.30
2018-06-15T03:16:25.398Z,11.73
2018-06-15T03:18:53.535Z,10.57
2018-06-15T03:21:21.930Z,11.13
2018-06-15T03:23:50.354Z,10.30
2018-06-15T03:26:18.502Z,10.33
2018-06-15T03:28:46.658Z,10.50
2018-06-15T03:31:14.822Z,10.20
2018-06-15T03:33:42.764Z,9.57
2018-06-15T03:36:10.911Z,9.33
2018-06-15T03:38:39.194Z,9.63
2018-06-15T03:41:07.398Z,10.33
2018-06-15T03:43:35.580Z,8.90
2018-06-15T03:46:04.856Z,9.83
2018-06-15T03:48:33.234Z,10.43
2018-06-15T03:51:01.468Z,8.47
2018-06-15T03:53:29.698Z,9.63
2018-06-15T03:55:57.864Z,9.50
2018-06-15T03:58:26.056Z,8.93
2018-06-15T04:00:54.940Z,9.00
2018-06-15T04:03:23.156Z,9.70
2018-06-15T04:05:51.412Z,10.30
2018-06-15T04:08:19.930Z,9.40
2018-06-15T04:10:48.107Z,10.40
2018-06-15T04:13:16.305Z,10.40
2018-06-15T04:15:44.497Z,9.83
2018-06-15T04:18:12.678Z,9.63
2018-06-15T04:20:40.878Z,9.73
2018-06-15T04:23:08.874Z,9.13
2018-06-15T04:25:37.234Z,9.80
2018-06-15T04:28:05.412Z,9.67
2018-06-15T04:30:33.705Z,9.87
2018-06-15T04:33:02.296Z,9.07
2018-06-15T04:35:30.880Z,8.67
2018-06-15T04:37:59.283Z,9.30
2018-06-15T04:40:27.470Z,8.97
2018-06-15T04:42:55.628Z,9.27
2018-06-15T04:45:24.049Z,9.00
2018-06-15T04:47:52.271Z,8.77
2018-06-15T04:50:21.615Z,9.73
2018-06-15T04:52:49.846Z,9.60
2018-06-15T04:55:18.045Z,9.73
2018-06-15T04:57:47.363Z,9.60
2018-06-15T05:00:16.263Z,9.20
2018-06-15T05:02:44.473Z,9.63
2018-06-15T05:05:12.749Z,10.67
2018-06-15T05:07:41.559Z,9.20
2018-06-15T05:10:09.717Z,8.80
2018-06-15T05:12:37.907Z,9.00
2018-06-15T05:15:06.361Z,10.23
2018-06-15T05:17:34.780Z,9.23
2018-06-15T05:20:03.467Z,9.13
2018-06-15T05:22:31.639Z,8.97
2018-06-15T05:24:59.960Z,9.93
2018-06-15T05:27:28.213Z,10.87
2018-06-15T05:29:56.366Z,9.90
2018-06-15T05:32:24.880Z,10.33
2018-06-15T05:34:53.911Z,10.30
2018-06-15T05:37:22.171Z,9.70
2018-06-15T05:39:50.381Z,9.90
2018-06-15T05:42:18.564Z,9.00
2018-06-15T05:44:46.907Z,8.73
2018-06-15T05:47:15.571Z,10.00
2018-06-15T05:49:44.737Z,9.83
2018-06-15T05:52:12.862Z,9.40
2018-06-15T05:54:41.369Z,10.23
2018-06-15T05:57:09.733Z,10.30
2018-06-15T05:59:38.573Z,9.57
2018-06-15T06:02:06.853Z,9.67
2018-06-15T06:04:35.601Z,9.40
2018-06-15T06:07:03.840Z,9.57
2018-06-15T06:09:34.648Z,10.47
2018-06-15T06:12:05.109Z,11.27
2018-06-15T06:14:33.463Z,9.87
2018-06-15T06:17:01.613Z,10.67
2018-06-15T06:19:29.912Z,9.60
2018-06-15T06:21:58.047Z,9.60
2018-06-15T06:24:26.934Z,9.07
2018-06-15T06:26:56.252Z,9.93
2018-06-15T06:29:24.812Z,10.03
2018-06-15T06:31:56.157Z,8.33
2018-06-15T06:34:25.691Z,9.10
2018-06-15T06:36:55.008Z,9.00
2018-06-15T06:39:24.249Z,9.00
2018-06-15T06:41:53.708Z,8.77
2018-06-15T06:44:28.369Z,8.87
2018-06-15T06:46:56.528Z,8.83
2018-06-15T06:49:25.948Z,8.67
2018-06-15T06:51:54.590Z,8.80
2018-06-15T06:54:22.842Z,9.30
2018-06-15T06:56:51.048Z,9.03
2018-06-15T06:59:20.542Z,9.83
2018-06-15T07:01:48.690Z,9.03
2018-06-15T07:04:16.874Z,9.00
2018-06-15T07:06:45.266Z,9.63
2018-06-15T07:09:13.709Z,9.07
2018-06-15T07:11:41.948Z,9.23
2018-06-15T07:14:10.377Z,10.60
2018-06-15T07:16:38.601Z,9.30
2018-06-15T07:19:06.833Z,8.73
2018-06-15T07:21:37.132Z,10.80
2018-06-15T07:24:06.535Z,10.17
2018-06-15T07:26:34.759Z,8.80
2018-06-15T07:29:03.035Z,8.93
2018-06-15T07:31:31.462Z,8.20
2018-06-15T07:33:59.603Z,9.07
2018-06-15T07:36:27.859Z,8.30
2018-06-15T07:38:56.889Z,8.33
2018-06-15T07:41:25.047Z,8.10
2018-06-15T07:43:53.238Z,7.30
2018-06-15T07:46:21.348Z,8.30
2018-06-15T07:48:49.507Z,8.33
2018-06-15T07:51:18.346Z,8.17
2018-06-15T07:53:46.486Z,8.77
2018-06-15T07:56:14.700Z,7.60
2018-06-15T07:58:42.925Z,8.77
2018-06-15T08:01:12.116Z,6.67
2018-06-15T08:03:40.266Z,7.60
2018-06-15T08:06:08.528Z,7.63
2018-06-15T08:08:37.370Z,6.20
2018-06-15T08:11:05.547Z,6.40
2018-06-15T08:13:33.712Z,6.47
2018-06-15T08:16:01.893Z,7.30
2018-06-15T08:18:30.038Z,7.27
2018-06-15T08:20:58.272Z,5.60
2018-06-15T08:23:26.426Z,6.60
2018-06-15T08:25:54.645Z,5.97
2018-06-15T08:28:23.207Z,6.07
2018-06-15T08:30:51.380Z,5.73
2018-06-15T08:33:21.086Z,5.27
2018-06-15T08:35:50.220Z,5.97
2018-06-15T08:38:18.607Z,5.90
2018-06-15T08:40:46.806Z,5.70
2018-06-15T08:43:15.047Z,5.10
2018-06-15T08:45:44.190Z,7.30
2018-06-15T08:48:12.698Z,5.70
2018-06-15T08:50:40.886Z,5.50
2018-06-15T08:53:09.153Z,6.20
2018-06-15T08:55:37.334Z,5.10
2018-06-15T08:58:05.929Z,4.73
2018-06-15T09:00:34.185Z,5.60
2018-06-15T09:03:02.677Z,4.43
2018-06-15T09:05:30.884Z,4.33
2018-06-15T09:07:59.227Z,4.70
2018-06-15T09:10:27.445Z,4.60
2018-06-15T09:12:55.684Z,4.50
2018-06-15T09:15:23.995Z,4.53
2018-06-15T09:17:52.343Z,4.77
2018-06-15T09:20:20.619Z,6.13
2018-06-15T09:22:48.873Z,6.00
2018-06-15T09:25:17.088Z,5.27
2018-06-15T09:27:45.423Z,5.83
2018-06-15T09:30:13.608Z,4.70
2018-06-15T09:32:43.468Z,3.90
2018-06-15T09:35:11.698Z,4.33
2018-06-15T09:37:39.875Z,4.73
2018-06-15T09:40:08.095Z,4.50
2018-06-15T09:42:36.262Z,4.83
2018-06-15T09:45:05.893Z,3.37
2018-06-15T09:47:34.118Z,4.97
2018-06-15T09:50:02.407Z,3.73
2018-06-15T09:52:31.619Z,4.50
2018-06-15T09:54:59.997Z,3.53
2018-06-15T09:57:28.807Z,3.73
2018-06-15T09:59:57.031Z,4.20
2018-06-15T10:02:25.343Z,3.90
2018-06-15T10:04:55.042Z,4.53
2018-06-15T10:07:23.221Z,4.57
2018-06-15T10:09:51.975Z,5.13
2018-06-15T10:12:20.149Z,5.70
2018-06-15T10:14:48.347Z,5.47
2018-06-15T10:17:16.556Z,6.23
2018-06-15T10:19:44.785Z,5.40
2018-06-15T10:22:12.940Z,5.03
2018-06-15T10:24:41.494Z,6.23
2018-06-15T10:27:10.135Z,4.17
2018-06-15T10:29:38.318Z,5.70
2018-06-15T10:32:06.558Z,5.17
2018-06-15T10:34:34.945Z,5.80
2018-06-15T10:37:03.223Z,5.40
2018-06-15T10:39:31.388Z,7.60
2018-06-15T10:42:00.422Z,6.47
2018-06-15T10:44:28.636Z,4.93
2018-06-15T10:46:57.002Z,5.17
2018-06-15T10:49:25.308Z,5.60
2018-06-15T10:51:53.490Z,4.87
2018-06-15T10:54:21.700Z,3.93
2018-06-15T10:56:50.208Z,4.00
2018-06-15T10:59:18.729Z,3.93
2018-06-15T11:01:49.018Z,4.20
2018-06-15T11:04:17.156Z,3.10
2018-06-15T11:06:46.440Z,3.50
2018-06-15T11:09:14.676Z,3.07
2018-06-15T11:11:42.831Z,2.80
2018-06-15T11:14:12.009Z,2.80
2018-06-15T11:16:40.138Z,2.83
2018-06-15T11:19:08.334Z,2.37
2018-06-15T11:21:36.850Z,20.67
2018-06-15T11:24:05.208Z,3.30
2018-06-15T11:26:34.285Z,1.97
2018-06-15T11:29:02.498Z,2.80
2018-06-15T11:31:30.792Z,2.23
2018-06-15T11:33:59.052Z,2.40
2018-06-15T11:36:27.225Z,2.03
2018-06-15T11:38:55.759Z,2.10
2018-06-15T11:41:23.931Z,2.67
2018-06-15T11:43:52.222Z,2.43
2018-06-15T11:46:20.488Z,2.73
2018-06-15T11:48:49.866Z,2.33
2018-06-15T11:51:18.205Z,3.20
2018-06-15T11:53:46.712Z,2.17
2018-06-15T11:56:16.523Z,2.60
2018-06-15T11:58:44.717Z,3.07
2018-06-15T12:01:12.869Z,2.90
2018-06-15T12:03:41.027Z,2.37
2018-06-15T12:06:09.206Z,2.90
2018-06-15T12:08:37.495Z,2.90
2018-06-15T12:11:05.659Z,2.67
2018-06-15T12:13:33.959Z,4.50
2018-06-15T12:16:02.061Z,2.70
2018-06-15T12:18:30.221Z,2.83
2018-06-15T12:20:58.411Z,2.90
2018-06-15T12:23:26.701Z,3.20
2018-06-15T12:25:54.822Z,2.60
2018-06-15T12:28:22.987Z,2.73
2018-06-15T12:30:51.184Z,2.23
2018-06-15T12:33:19.359Z,2.77
2018-06-15T12:35:47.530Z,2.67
2018-06-15T12:38:15.960Z,2.60
2018-06-15T12:40:44.193Z,2.60
2018-06-15T12:43:12.406Z,3.27
2018-06-15T12:45:40.687Z,2.70
2018-06-15T12:48:08.881Z,2.80
2018-06-15T12:50:37.323Z,3.00
2018-06-15T12:53:05.477Z,3.57
2018-06-15T12:55:33.644Z,2.63
2018-06-15T12:58:02.093Z,3.03
2018-06-15T13:00:30.205Z,2.70
2018-06-15T13:02:58.731Z,3.00
2018-06-15T13:05:27.026Z,3.10
2018-06-15T13:07:55.278Z,2.73
2018-06-15T13:10:23.590Z,2.90
2018-06-15T13:12:51.918Z,4.00
2018-06-15T13:15:20.579Z,3.27
2018-06-15T13:17:48.779Z,3.87
2018-06-15T13:20:17.117Z,3.80
2018-06-15T13:22:46.372Z,3.30
2018-06-15T13:25:14.503Z,4.20
2018-06-15T13:27:42.877Z,4.07
2018-06-15T13:30:11.059Z,3.40
2018-06-15T13:32:39.189Z,3.17
2018-06-15T13:35:07.489Z,3.43
2018-06-15T13:37:35.679Z,3.63
2018-06-15T13:40:04.091Z,2.90
2018-06-15T13:42:33.187Z,3.10
2018-06-15T13:45:02.484Z,3.10
2018-06-15T13:47:30.668Z,3.53
2018-06-15T13:49:58.993Z,3.80
2018-06-15T13:52:27.275Z,3.30
2018-06-15T13:54:55.723Z,3.50
2018-06-15T13:57:23.943Z,4.40
2018-06-15T13:59:52.401Z,3.73
2018-06-15T14:02:20.727Z,3.53
2018-06-15T14:04:48.853Z,3.50
2018-06-15T14:07:16.888Z,3.50
2018-06-15T14:09:45.062Z,3.30
2018-06-15T14:12:13.228Z,3.60
2018-06-15T14:14:41.429Z,3.47
2018-06-15T14:17:09.777Z,4.60
2018-06-15T14:19:38.217Z,3.20
2018-06-15T14:22:06.565Z,7.57
2018-06-15T14:24:35.829Z,5.20
2018-06-15T14:27:05.432Z,5.97
2018-06-15T14:29:33.597Z,4.00
2018-06-15T14:32:03.371Z,4.87
2018-06-15T14:34:31.850Z,4.33
2018-06-15T14:37:00.842Z,5.70
2018-06-15T14:39:29.279Z,4.80
2018-06-15T14:41:58.194Z,4.70
2018-06-15T14:44:26.415Z,3.03
2018-06-15T14:46:55.007Z,3.47
2018-06-15T14:49:23.347Z,3.60
2018-06-15T14:51:51.548Z,3.23
2018-06-15T14:54:19.868Z,3.00
2018-06-15T14:56:48.039Z,3.20
2018-06-15T14:59:17.003Z,3.20
2018-06-15T15:01:45.198Z,3.70
2018-06-15T15:04:13.362Z,3.33
2018-06-15T15:06:41.552Z,4.03
2018-06-15T15:09:12.969Z,3.13
2018-06-15T15:11:41.201Z,2.90
2018-06-15T15:14:09.376Z,3.40
2018-06-15T15:16:37.822Z,3.07
2018-06-15T15:19:05.983Z,3.23
2018-06-15T15:21:34.848Z,2.90
2018-06-15T15:24:03.520Z,4.10
2018-06-15T15:26:31.690Z,2.93
2018-06-15T15:28:59.842Z,3.00
2018-06-15T15:31:28.042Z,3.03
2018-06-15T15:33:56.966Z,3.13
2018-06-15T15:36:25.955Z,2.67
2018-06-15T15:38:54.095Z,2.90
2018-06-15T15:41:22.815Z,3.20
2018-06-15T15:43:50.994Z,4.00
2018-06-15T15:46:19.168Z,3.30
2018-06-15T15:48:47.427Z,2.93
2018-06-15T15:51:15.782Z,3.10
2018-06-15T15:53:43.933Z,3.20
2018-06-15T15:56:12.561Z,3.20
2018-06-15T15:58:40.855Z,4.13
2018-06-15T16:01:09.029Z,3.60
2018-06-15T16:03:37.621Z,3.93
2018-06-15T16:06:05.818Z,3.57
2018-06-15T16:08:33.999Z,3.00
2018-06-15T16:11:02.204Z,3.47
2018-06-15T16:13:30.911Z,3.60
2018-06-15T16:15:59.235Z,4.23
2018-06-15T16:18:27.439Z,2.80
2018-06-15T16:20:56.349Z,4.27
2018-06-15T16:23:24.669Z,3.30
2018-06-15T16:25:53.058Z,3.40
2018-06-15T16:28:22.016Z,2.90
2018-06-15T16:30:51.408Z,3.20
2018-06-15T16:33:20.472Z,3.23
2018-06-15T16:35:50.951Z,3.20
2018-06-15T16:38:21.130Z,2.77
2018-06-15T16:40:49.307Z,3.40
2018-06-15T16:43:17.532Z,3.10
2018-06-15T16:45:46.156Z,3.30
2018-06-15T16:48:14.390Z,3.60
2018-06-15T16:50:42.652Z,4.23
2018-06-15T16:53:10.916Z,4.50
2018-06-15T16:55:39.810Z,4.37
2018-06-15T16:58:08.174Z,4.03
2018-06-15T17:00:36.380Z,3.73
2018-06-15T17:03:04.657Z,3.30
2018-06-15T17:05:33.179Z,3.10
2018-06-15T17:08:01.355Z,3.47
2018-06-15T17:10:29.703Z,4.53
2018-06-15T17:12:58.113Z,3.73
2018-06-15T17:15:27.223Z,3.60
2018-06-15T17:17:55.395Z,6.27
2018-06-15T17:20:23.526Z,3.73
2018-06-15T17:22:51.823Z,4.17
2018-06-15T17:25:20.007Z,4.90
2018-06-15T17:27:48.157Z,4.60
2018-06-15T17:30:17.459Z,3.70
2018-06-15T17:32:45.517Z,4.80
2018-06-15T17:35:13.675Z,5.53
2018-06-15T17:37:41.813Z,4.53
2018-06-15T17:40:10.155Z,4.60
2018-06-15T17:42:38.339Z,4.63
2018-06-15T17:45:07.255Z,4.97
2018-06-15T17:47:35.405Z,4.30
2018-06-15T17:50:03.731Z,4.67
2018-06-15T17:52:32.597Z,7.37
2018-06-15T17:55:00.823Z,5.50
2018-06-15T17:57:29.616Z,5.77
2018-06-15T17:59:57.797Z,5.10
2018-06-15T18:02:26.189Z,5.07
2018-06-15T18:04:54.425Z,5.60
2018-06-15T18:07:22.605Z,7.90
2018-06-15T18:09:50.931Z,9.40
2018-06-15T18:12:19.148Z,8.70
2018-06-15T18:14:47.071Z,9.80
2018-06-15T18:17:15.499Z,7.57
2018-06-15T18:19:43.461Z,7.70
2018-06-15T18:22:11.886Z,6.60
2018-06-15T18:24:40.152Z,5.97
2018-06-15T18:27:09.049Z,6.03
2018-06-15T18:29:37.549Z,6.33
2018-06-15T18:32:05.693Z,6.23
2018-06-15T18:34:34.181Z,5.30
2018-06-15T18:37:02.584Z,5.40
2018-06-15T18:39:30.775Z,4.30
2018-06-15T18:41:58.945Z,4.63
2018-06-15T18:44:27.627Z,4.90
2018-06-15T18:46:55.885Z,5.17
2018-06-15T18:49:24.047Z,4.90
2018-06-15T18:51:52.363Z,4.47
2018-06-15T18:54:20.865Z,4.87
2018-06-15T18:56:49.023Z,4.83
2018-06-15T18:59:16.982Z,4.87
2018-06-15T19:01:46.094Z,3.87
2018-06-15T19:04:14.410Z,4.07
2018-06-15T19:06:42.599Z,3.47
2018-06-15T19:09:12.031Z,4.97
2018-06-15T19:11:40.254Z,4.80
2018-06-15T19:14:08.598Z,5.40
2018-06-15T19:16:36.833Z,4.13
2018-06-15T19:19:05.018Z,3.83
2018-06-15T19:21:33.222Z,4.57
2018-06-15T19:24:01.500Z,4.10
2018-06-15T19:26:29.934Z,4.50
2018-06-15T19:28:58.334Z,3.43
2018-06-15T19:31:26.500Z,3.97
2018-06-15T19:33:56.436Z,4.70
2018-06-15T19:36:24.718Z,4.53
2018-06-15T19:38:53.138Z,4.37
2018-06-15T19:41:21.384Z,4.70
2018-06-15T19:43:49.880Z,5.03
2018-06-15T19:46:18.937Z,6.57
2018-06-15T19:48:46.924Z,5.70
2018-06-15T19:51:15.168Z,7.97
2018-06-15T19:53:44.526Z,8.90
2018-06-15T19:56:12.672Z,10.00
2018-06-15T19:58:40.835Z,10.47
2018-06-15T20:01:09.048Z,14.37
2018-06-15T20:03:37.269Z,18.17
2018-06-15T20:06:05.800Z,20.23
2018-06-15T20:08:33.946Z,19.50
2018-06-15T20:11:02.120Z,19.97
2018-06-15T20:13:30.400Z,16.40
2018-06-15T20:15:58.646Z,11.70
2018-06-15T20:18:27.160Z,11.60
2018-06-15T20:20:55.408Z,11.70
2018-06-15T20:23:23.634Z,10.93
2018-06-15T20:25:51.872Z,9.30
2018-06-15T20:28:20.139Z,9.47
2018-06-15T20:30:48.323Z,7.17
2018-06-15T20:33:16.642Z,7.50
2018-06-15T20:35:44.776Z,8.10
2018-06-15T20:38:12.936Z,8.00
2018-06-15T20:40:41.264Z,7.33
2018-06-15T20:43:09.480Z,6.50
2018-06-15T20:45:37.668Z,6.57
2018-06-15T20:48:06.476Z,8.40
2018-06-15T20:50:34.612Z,7.27
2018-06-15T20:53:03.695Z,6.90
2018-06-15T20:55:32.112Z,7.37
2018-06-15T20:58:00.362Z,6.30
2018-06-15T21:00:29.451Z,6.37
2018-06-15T21:02:57.688Z,6.60
2018-06-15T21:05:25.866Z,6.47
2018-06-15T21:07:54.341Z,6.10
2018-06-15T21:10:22.562Z,6.77
2018-06-15T21:12:51.255Z,5.53
2018-06-15T21:15:20.556Z,6.33
2018-06-15T21:17:48.758Z,15.77
2018-06-15T21:20:17.703Z,6.50
2018-06-15T21:22:46.350Z,5.33
2018-06-15T21:25:14.528Z,26.37
2018-06-15T21:27:42.717Z,5.90
2018-06-15T21:30:11.082Z,4.33
2018-06-15T21:32:39.341Z,5.30
2018-06-15T21:35:07.508Z,6.00
2018-06-15T21:37:36.032Z,5.37
2018-06-15T21:40:04.495Z,5.27
2018-06-15T21:42:32.707Z,5.37
2018-06-15T21:45:02.473Z,6.13
2018-06-15T21:47:30.791Z,7.57
2018-06-15T21:49:59.003Z,5.97
2018-06-15T21:52:27.163Z,5.77
2018-06-15T21:54:55.411Z,5.10
2018-06-15T21:57:24.556Z,8.27
2018-06-15T21:59:52.989Z,8.40
2018-06-15T22:02:21.270Z,5.23
2018-06-15T22:04:52.310Z,8.20
2018-06-15T22:07:20.649Z,6.70
2018-06-15T22:09:48.880Z,15.50
2018-06-15T22:12:17.066Z,6.40
2018-06-15T22:14:45.602Z,5.80
2018-06-15T22:17:14.123Z,6.97
2018-06-15T22:19:42.228Z,6.00
2018-06-15T22:22:11.165Z,6.00
2018-06-15T22:24:40.732Z,6.43
2018-06-15T22:27:09.015Z,5.73
2018-06-15T22:29:37.301Z,6.23
2018-06-15T22:32:05.899Z,6.50
2018-06-15T22:34:34.076Z,6.10
2018-06-15T22:37:02.428Z,6.40
2018-06-15T22:39:30.629Z,6.33
2018-06-15T22:41:58.916Z,6.77
2018-06-15T22:44:28.104Z,6.83
2018-06-15T22:46:56.312Z,7.00
2018-06-15T22:49:24.545Z,6.77
2018-06-15T22:51:52.818Z,6.83
2018-06-15T22:54:21.008Z,6.73
2018-06-15T22:56:49.238Z,6.60
2018-06-15T22:59:17.463Z,6.20
2018-06-15T23:01:45.912Z,6.37
2018-06-15T23:04:14.041Z,6.87
2018-06-15T23:06:42.388Z,6.60
2018-06-15T23:09:12.035Z,6.13
2018-06-15T23:11:40.753Z,8.00
2018-06-15T23:14:08.985Z,7.63
2018-06-15T23:16:37.171Z,6.90
2018-06-15T23:19:05.396Z,8.10
2018-06-15T23:21:33.837Z,8.20
2018-06-15T23:24:01.961Z,8.00
2018-06-15T23:26:30.851Z,8.10
2018-06-15T23:28:59.342Z,7.70
2018-06-15T23:31:27.576Z,8.00
2018-06-15T23:33:56.301Z,7.10
2018-06-15T23:36:24.483Z,7.80
2018-06-15T23:38:52.644Z,7.77
2018-06-15T23:41:21.557Z,7.90
2018-06-15T23:43:49.740Z,7.60
2018-06-15T23:46:18.269Z,7.20
2018-06-15T23:48:46.495Z,8.07
2018-06-15T23:51:14.651Z,7.83
2018-06-15T23:53:42.900Z,7.73
2018-06-15T23:56:11.352Z,7.63
2018-06-15T23:58:39.753Z,7.83
